Dobrodošli na spletni strani vremenske postaje Senovo. Vse informacije so informativnega značaja, saj vremenska postaja ni del državne mreže meteoroloških postaj. AKTUALNIH OBVESTIL NI.


Posebna pozornost v zvezi z vremenskimi dogajanji ni potrebna.    Posebna pozornost v zvezi z vremenskimi dogajanji ni potrebna.

Pogled proti Armezu več informacij Pogled proti Armezu


Lisca več informacij Lisca


Radar strel več informacij blitzortung!


Radar padavin več informacij rain snow radar


Obiščite še:

Template documentation
and downloads

And another site



Weather Underground, zgodovina - Tekstovno

Dnevni povzetek za Januar 16, 2018 Enote:  Obe    Angleško   Metrično
« Predhodni Dan
Naslednji Dan »
Dnevni Tedenski Mesečni Letni Po meri
  Višja: Nižja: Povprečje:
Temperatura: TemperatureC °F /  -17.8 °C -1.0 °F /  -18.3 °C 4.1 °F /  -15.5 °C
Točka rosišča: DewpointC °F /  -17.8 °C -3.1 °F /  -19.5 °C 1.1 °F /  -17.2 °C
Vlažnost: Humidity % 67 % 81 %
Hitrost vetra: WindSpeedKMH mph /  0 km/h - 3.7 mph /  6 km/h
Sunki vetra: WindSpeedGustKMH mph /  0 km/h - -
Veter:- - SW
Zračni tlak: PressurehPa in /  0 hPa 999.9 in /  33856.6 hPa -
Padavine: 0.3 in /  7.62 mm    
Historical Graphs
 
 
Tabelarni podarki za Januar 16, 2018
Čas Temperatura Točka rosišča Zračni tlak Veter Hitrost vetra Sunki vetra Vlažnost Intenziteta padavin (urna)
TemperatureC °F /  -17.8 °C DewpointC °F /  -17.8 °C PressurehPa in /  0 hPa Calm     Humidity % HourlyPrecipMM in /  0 mm
00:12 -0.1 °F /  -17.8 °C -3.1 °F /  -19.5 °C 1015.1 in /  34371.3 hPa SW 1.4 mph /  2.3 km/h 3.2 mph /  5.1 km/h 80 % 0.0 in /  0 mm
00:20 -0.1 °F /  -17.8 °C -3.1 °F /  -19.5 °C 1015.1 in /  34371.3 hPa SW 1.6 mph /  2.6 km/h 4.0 mph /  6.4 km/h 80 % 0.0 in /  0 mm
00:58 0.0 °F /  -17.8 °C -2.9 °F /  -19.4 °C 1014.1 in /  34337.4 hPa SSW 0.6 mph /  1 km/h 3.5 mph /  5.6 km/h 81 % 0.0 in /  0 mm
01:03 -0.1 °F /  -17.8 °C -2.9 °F /  -19.4 °C 1014.1 in /  34337.4 hPa SW 1.9 mph /  3.1 km/h 5.5 mph /  8.9 km/h 81 % 0.0 in /  0 mm
01:09 -0.1 °F /  -17.8 °C -2.9 °F /  -19.4 °C 1014.1 in /  34337.4 hPa SW 2.9 mph /  4.7 km/h 5.5 mph /  8.9 km/h 81 % 0.0 in /  0 mm
01:35 -0.2 °F /  -17.9 °C -2.9 °F /  -19.4 °C 1014.1 in /  34337.4 hPa West 3.4 mph /  5.5 km/h 5.5 mph /  8.9 km/h 82 % 0.0 in /  0 mm
01:41 -0.2 °F /  -17.9 °C -2.9 °F /  -19.4 °C 1014.1 in /  34337.4 hPa WSW 3.2 mph /  5.1 km/h 5.5 mph /  8.9 km/h 82 % 0.0 in /  0 mm
01:55 -0.2 °F /  -17.9 °C -2.9 °F /  -19.4 °C 1013.1 in /  34303.6 hPa WSW 0.2 mph /  0.3 km/h 3.5 mph /  5.6 km/h 82 % 0.0 in /  0 mm
02:03 -0.2 °F /  -17.9 °C -2.7 °F /  -19.3 °C 1013.1 in /  34303.6 hPa West 2.7 mph /  4.3 km/h 6.1 mph /  9.8 km/h 83 % 0.0 in /  0 mm
02:10 -0.2 °F /  -17.9 °C -2.7 °F /  -19.3 °C 1013.1 in /  34303.6 hPa West 3.5 mph /  5.6 km/h 6.1 mph /  9.8 km/h 83 % 0.0 in /  0 mm
02:19 -0.2 °F /  -17.9 °C -2.7 °F /  -19.3 °C 1013.1 in /  34303.6 hPa WSW 1.4 mph /  2.3 km/h 4.3 mph /  6.9 km/h 83 % 0.0 in /  0 mm
02:26 -0.2 °F /  -17.9 °C -2.7 °F /  -19.3 °C 1013.1 in /  34303.6 hPa West 1.9 mph /  3.1 km/h 5.0 mph /  8 km/h 83 % 0.0 in /  0 mm
02:31 -0.2 °F /  -17.9 °C -2.7 °F /  -19.3 °C 1013.1 in /  34303.6 hPa West 1.6 mph /  2.6 km/h 4.7 mph /  7.6 km/h 83 % 0.0 in /  0 mm
02:42 -0.2 °F /  -17.9 °C -2.7 °F /  -19.3 °C 1012.1 in /  34269.7 hPa Calm     83 % 0.0 in /  0 mm
02:50 -0.2 °F /  -17.9 °C -2.6 °F /  -19.2 °C 1012.1 in /  34269.7 hPa ENE 0.2 mph /  0.3 km/h 2.1 mph /  3.4 km/h 84 % 0.0 in /  0 mm
02:57 -0.2 °F /  -17.9 °C -2.6 °F /  -19.2 °C 1012.1 in /  34269.7 hPa ENE 0.3 mph /  0.5 km/h 2.1 mph /  3.4 km/h 84 % 0.0 in /  0 mm
03:07 -0.2 °F /  -17.9 °C -2.6 °F /  -19.2 °C 1012.1 in /  34269.7 hPa Calm     84 % 0.0 in /  0 mm
03:21 -0.2 °F /  -17.9 °C -2.6 °F /  -19.2 °C 1012.1 in /  34269.7 hPa SW 2.9 mph /  4.7 km/h 4.3 mph /  6.9 km/h 84 % 0.0 in /  0 mm
03:27 -0.2 °F /  -17.9 °C -2.6 °F /  -19.2 °C 1011.1 in /  34235.8 hPa WSW 2.6 mph /  4.2 km/h 4.7 mph /  7.6 km/h 84 % 0.0 in /  0 mm
03:44 -0.2 °F /  -17.9 °C -2.6 °F /  -19.2 °C 1011.1 in /  34235.8 hPa SW 0.3 mph /  0.5 km/h 2.6 mph /  4.2 km/h 84 % 0.0 in /  0 mm
03:53 -0.2 °F /  -17.9 °C -2.4 °F /  -19.1 °C 1011.1 in /  34235.8 hPa WSW 1.8 mph /  2.9 km/h 5.0 mph /  8 km/h 85 % 0.0 in /  0 mm
04:01 -0.3 °F /  -17.9 °C -2.5 °F /  -19.2 °C 1011.1 in /  34235.8 hPa West 2.6 mph /  4.2 km/h 5.5 mph /  8.9 km/h 85 % 0.0 in /  0 mm
04:10 -0.3 °F /  -17.9 °C -2.5 °F /  -19.2 °C 1011.1 in /  34235.8 hPa Calm   4.3 mph /  6.9 km/h 85 % 0.0 in /  0 mm
04:23 -0.2 °F /  -17.9 °C -2.4 °F /  -19.1 °C 1011.1 in /  34235.8 hPa SSW 1.0 mph /  1.6 km/h 4.0 mph /  6.4 km/h 85 % 0.0 in /  0 mm
04:42 -0.2 °F /  -17.9 °C -2.4 °F /  -19.1 °C 1011.1 in /  34235.8 hPa SSW 0.6 mph /  1 km/h 4.0 mph /  6.4 km/h 85 % 0.0 in /  0 mm
04:49 -0.2 °F /  -17.9 °C -2.3 °F /  -19.1 °C 1011.1 in /  34235.8 hPa SSW 3.2 mph /  5.1 km/h 5.5 mph /  8.9 km/h 86 % 0.0 in /  0 mm
04:56 -0.2 °F /  -17.9 °C -2.3 °F /  -19.1 °C 1010.0 in /  34198.6 hPa SW 4.3 mph /  6.9 km/h 6.1 mph /  9.8 km/h 86 % 0.0 in /  0 mm
05:02 -0.2 °F /  -17.9 °C -2.3 °F /  -19.1 °C 1010.0 in /  34198.6 hPa SW 4.8 mph /  7.7 km/h 6.1 mph /  9.8 km/h 86 % 0.0 in /  0 mm
05:19 -0.2 °F /  -17.9 °C -2.3 °F /  -19.1 °C 1009.0 in /  34164.7 hPa SW 3.7 mph /  6 km/h 5.5 mph /  8.9 km/h 86 % 0.0 in /  0 mm
05:42 -0.3 °F /  -17.9 °C -2.2 °F /  -19 °C 1009.0 in /  34164.7 hPa South 1.0 mph /  1.6 km/h 4.3 mph /  6.9 km/h 87 % 0.0 in /  0 mm
05:49 -0.2 °F /  -17.9 °C -2.1 °F /  -18.9 °C 1009.0 in /  34164.7 hPa SSW 2.3 mph /  3.7 km/h 4.3 mph /  6.9 km/h 87 % 0.0 in /  0 mm
06:02 -0.2 °F /  -17.9 °C -2.1 °F /  -18.9 °C 1009.0 in /  34164.7 hPa Calm     87 % 0.0 in /  0 mm
06:15 -0.3 °F /  -17.9 °C -2.2 °F /  -19 °C 1009.0 in /  34164.7 hPa West 0.6 mph /  1 km/h 4.3 mph /  6.9 km/h 87 % 0.0 in /  0 mm
06:21 -0.3 °F /  -17.9 °C -2.2 °F /  -19 °C 1009.0 in /  34164.7 hPa Calm     87 % 0.0 in /  0 mm
06:26 -0.3 °F /  -17.9 °C -2.2 °F /  -19 °C 1008.0 in /  34130.9 hPa Calm     87 % 0.0 in /  0 mm
06:36 -0.3 °F /  -17.9 °C -2.2 °F /  -19 °C 1008.0 in /  34130.9 hPa SW 1.4 mph /  2.3 km/h 5.5 mph /  8.9 km/h 87 % 0.3 in /  7.62 mm
06:41 -0.3 °F /  -17.9 °C -2.2 °F /  -19 °C 1008.0 in /  34130.9 hPa SSW 3.5 mph /  5.6 km/h 5.8 mph /  9.3 km/h 87 % 0.3 in /  7.62 mm
07:04 -0.3 °F /  -17.9 °C -2.1 °F /  -18.9 °C 1008.0 in /  34130.9 hPa SW 1.8 mph /  2.9 km/h 5.0 mph /  8 km/h 88 % 0.3 in /  7.62 mm
07:05 -0.3 °F /  -17.9 °C -2.1 °F /  -18.9 °C 1008.0 in /  34130.9 hPa SW 2.1 mph /  3.4 km/h 5.0 mph /  8 km/h 88 % 0.3 in /  7.62 mm
07:12 -0.3 °F /  -17.9 °C -2.1 °F /  -18.9 °C 1008.0 in /  34130.9 hPa WSW 3.4 mph /  5.5 km/h 5.5 mph /  8.9 km/h 88 % 0.3 in /  7.62 mm
07:25 -0.5 °F /  -18.1 °C -2.2 °F /  -19 °C 1008.0 in /  34130.9 hPa West 3.7 mph /  6 km/h 6.4 mph /  10.3 km/h 88 % 0.3 in /  7.62 mm
07:39 -0.7 °F /  -18.2 °C -2.4 °F /  -19.1 °C 1007.0 in /  34097 hPa WSW 1.3 mph /  2.1 km/h 4.0 mph /  6.4 km/h 88 % 0.0 in /  0 mm
07:45 -0.9 °F /  -18.3 °C -2.6 °F /  -19.2 °C 1007.0 in /  34097 hPa Calm     88 % 0.0 in /  0 mm
08:11 -1.0 °F /  -18.3 °C -2.7 °F /  -19.3 °C 1008.0 in /  34130.9 hPa Calm     88 % 0.0 in /  0 mm
08:36 -0.5 °F /  -18.1 °C -2.2 °F /  -19 °C 1007.0 in /  34097 hPa SSW 0.6 mph /  1 km/h 4.3 mph /  6.9 km/h 88 % 0.0 in /  0 mm
08:51 -0.3 °F /  -17.9 °C -1.9 °F /  -18.8 °C 1007.0 in /  34097 hPa SW 0.6 mph /  1 km/h 3.5 mph /  5.6 km/h 89 % 0.0 in /  0 mm
08:59 -0.1 °F /  -17.8 °C -1.7 °F /  -18.7 °C 1007.0 in /  34097 hPa SW 1.0 mph /  1.6 km/h 3.5 mph /  5.6 km/h 89 % 0.0 in /  0 mm
09:05 0.0 °F /  -17.8 °C -1.6 °F /  -18.7 °C 1007.0 in /  34097 hPa SW 0.2 mph /  0.3 km/h 2.6 mph /  4.2 km/h 89 % 0.0 in /  0 mm
09:15 0.1 °F /  -17.7 °C -1.5 °F /  -18.6 °C 1006.0 in /  34063.2 hPa South 0.6 mph /  1 km/h 3.2 mph /  5.1 km/h 89 % 0.0 in /  0 mm
09:31 0.5 °F /  -17.5 °C -0.9 °F /  -18.3 °C 1007.0 in /  34097 hPa SE 1.1 mph /  1.8 km/h 5.5 mph /  8.9 km/h 90 % 0.0 in /  0 mm
09:50 0.6 °F /  -17.4 °C -0.8 °F /  -18.2 °C 1007.0 in /  34097 hPa WNW 0.2 mph /  0.3 km/h 2.6 mph /  4.2 km/h 90 % 0.0 in /  0 mm
09:56 0.7 °F /  -17.4 °C -0.8 °F /  -18.2 °C 1007.0 in /  34097 hPa NNW 0.6 mph /  1 km/h 4.0 mph /  6.4 km/h 90 % 0.0 in /  0 mm
10:01 0.7 °F /  -17.4 °C -0.8 °F /  -18.2 °C 1007.0 in /  34097 hPa West 1.4 mph /  2.3 km/h 4.7 mph /  7.6 km/h 90 % 0.0 in /  0 mm
10:12 1.1 °F /  -17.2 °C -0.3 °F /  -17.9 °C 1007.0 in /  34097 hPa WSW 5.6 mph /  9 km/h 9.7 mph /  15.6 km/h 90 % 0.0 in /  0 mm
10:18 1.4 °F /  -17 °C -0.1 °F /  -17.8 °C 1007.0 in /  34097 hPa SW 4.7 mph /  7.6 km/h 8.7 mph /  14 km/h 90 % 0.3 in /  7.62 mm
10:25 1.6 °F /  -16.9 °C 0.1 °F /  -17.7 °C 1007.0 in /  34097 hPa SSW 4.3 mph /  6.9 km/h 9.0 mph /  14.5 km/h 90 % 0.3 in /  7.62 mm
10:32 2.0 °F /  -16.7 °C 0.6 °F /  -17.4 °C 1007.0 in /  34097 hPa SW 4.5 mph /  7.2 km/h 8.7 mph /  14 km/h 90 % 0.3 in /  7.62 mm
10:38 2.3 °F /  -16.5 °C 1.0 °F /  -17.2 °C 1007.0 in /  34097 hPa SW 4.3 mph /  6.9 km/h 8.7 mph /  14 km/h 91 % 0.3 in /  7.62 mm
10:55 3.1 °F /  -16.1 °C 1.8 °F /  -16.8 °C 1006.0 in /  34063.2 hPa SW 6.1 mph /  9.8 km/h 9.0 mph /  14.5 km/h 91 % 0.3 in /  7.62 mm
11:08 3.7 °F /  -15.7 °C 2.4 °F /  -16.4 °C 1005.0 in /  34029.3 hPa SW 6.6 mph /  10.6 km/h 10.1 mph /  16.3 km/h 91 % 0.3 in /  7.62 mm
11:23 4.1 °F /  -15.5 °C 2.8 °F /  -16.2 °C 1005.0 in /  34029.3 hPa SW 5.6 mph /  9 km/h 7.9 mph /  12.7 km/h 91 % 0.0 in /  0 mm
11:37 4.5 °F /  -15.3 °C 3.2 °F /  -16 °C 1003.9 in /  33992.1 hPa SSW 5.0 mph /  8 km/h 6.9 mph /  11.1 km/h 91 % 0.0 in /  0 mm
11:49 5.1 °F /  -14.9 °C 3.8 °F /  -15.7 °C 1006.0 in /  34063.2 hPa South 3.4 mph /  5.5 km/h 6.4 mph /  10.3 km/h 91 % 0.0 in /  0 mm
11:55 5.5 °F /  -14.7 °C 4.2 °F /  -15.4 °C 1006.0 in /  34063.2 hPa SSE 2.3 mph /  3.7 km/h 9.0 mph /  14.5 km/h 91 % 0.0 in /  0 mm
12:00 5.8 °F /  -14.6 °C 4.6 °F /  -15.2 °C 1005.0 in /  34029.3 hPa South 3.5 mph /  5.6 km/h 9.0 mph /  14.5 km/h 92 % 0.0 in /  0 mm
12:11 6.3 °F /  -14.3 °C 4.9 °F /  -15.1 °C 1003.9 in /  33992.1 hPa SSW 4.3 mph /  6.9 km/h 7.9 mph /  12.7 km/h 91 % 0.0 in /  0 mm
12:17 6.5 °F /  -14.2 °C 5.1 °F /  -14.9 °C 1003.9 in /  33992.1 hPa SSW 1.9 mph /  3.1 km/h 5.8 mph /  9.3 km/h 91 % 0.0 in /  0 mm
12:39 7.4 °F /  -13.7 °C 5.9 °F /  -14.5 °C 1002.9 in /  33958.2 hPa SW 5.8 mph /  9.3 km/h 10.5 mph /  16.9 km/h 90 % 0.0 in /  0 mm
12:45 7.4 °F /  -13.7 °C 5.9 °F /  -14.5 °C 1002.9 in /  33958.2 hPa SW 4.2 mph /  6.8 km/h 7.9 mph /  12.7 km/h 90 % 0.0 in /  0 mm
13:04 7.8 °F /  -13.4 °C 6.1 °F /  -14.4 °C 1002.9 in /  33958.2 hPa West 4.7 mph /  7.6 km/h 16.9 mph /  27.2 km/h 89 % 0.0 in /  0 mm
13:16 7.9 °F /  -13.4 °C 5.9 °F /  -14.5 °C 1002.9 in /  33958.2 hPa West 2.4 mph /  3.9 km/h 6.9 mph /  11.1 km/h 87 % 0.0 in /  0 mm
13:22 7.8 °F /  -13.4 °C 5.8 °F /  -14.6 °C 1002.9 in /  33958.2 hPa SSW 2.4 mph /  3.9 km/h 6.1 mph /  9.8 km/h 87 % 0.0 in /  0 mm
13:30 7.9 °F /  -13.4 °C 5.9 °F /  -14.5 °C 1002.9 in /  33958.2 hPa SSE 2.3 mph /  3.7 km/h 8.7 mph /  14 km/h 87 % 0.0 in /  0 mm
13:35 8.0 °F /  -13.3 °C 5.8 °F /  -14.6 °C 1002.9 in /  33958.2 hPa SSW 4.7 mph /  7.6 km/h 10.1 mph /  16.3 km/h 86 % 0.0 in /  0 mm
13:42 8.0 °F /  -13.3 °C 5.6 °F /  -14.7 °C 1002.9 in /  33958.2 hPa WSW 4.5 mph /  7.2 km/h 8.7 mph /  14 km/h 85 % 0.0 in /  0 mm
13:47 8.1 °F /  -13.3 °C 5.7 °F /  -14.6 °C 1002.9 in /  33958.2 hPa West 4.3 mph /  6.9 km/h 9.3 mph /  15 km/h 85 % 0.0 in /  0 mm
13:54 8.1 °F /  -13.3 °C 5.7 °F /  -14.6 °C 1002.9 in /  33958.2 hPa WNW 3.7 mph /  6 km/h 9.3 mph /  15 km/h 85 % 0.0 in /  0 mm
14:05 8.2 °F /  -13.2 °C 5.7 °F /  -14.6 °C 1002.9 in /  33958.2 hPa South 5.5 mph /  8.9 km/h 13.0 mph /  20.9 km/h 84 % 0.0 in /  0 mm
14:10 8.2 °F /  -13.2 °C 5.5 °F /  -14.7 °C 1002.9 in /  33958.2 hPa SSW 7.6 mph /  12.2 km/h 20.9 mph /  33.6 km/h 83 % 0.0 in /  0 mm
14:21 8.4 °F /  -13.1 °C 5.5 °F /  -14.7 °C 1002.9 in /  33958.2 hPa SW 8.0 mph /  12.9 km/h 19.1 mph /  30.7 km/h 82 % 0.0 in /  0 mm
14:29 8.5 °F /  -13.1 °C 5.4 °F /  -14.8 °C 1001.9 in /  33924.3 hPa SW 6.9 mph /  11.1 km/h 16.3 mph /  26.2 km/h 81 % 0.0 in /  0 mm
14:37 8.6 °F /  -13 °C 5.3 °F /  -14.8 °C 1001.9 in /  33924.3 hPa SW 5.5 mph /  8.9 km/h 14.0 mph /  22.5 km/h 80 % 0.0 in /  0 mm
14:43 8.7 °F /  -12.9 °C 5.3 °F /  -14.8 °C 1000.9 in /  33890.5 hPa West 7.1 mph /  11.4 km/h 17.2 mph /  27.7 km/h 79 % 0.0 in /  0 mm
14:50 8.8 °F /  -12.9 °C 5.2 °F /  -14.9 °C 1000.9 in /  33890.5 hPa West 7.2 mph /  11.6 km/h 17.2 mph /  27.7 km/h 78 % 0.0 in /  0 mm
14:57 8.8 °F /  -12.9 °C 5.0 °F /  -15 °C 1000.9 in /  33890.5 hPa SW 6.8 mph /  10.9 km/h 20.1 mph /  32.3 km/h 77 % 0.0 in /  0 mm
15:03 8.8 °F /  -12.9 °C 4.8 °F /  -15.1 °C 1000.9 in /  33890.5 hPa SW 6.3 mph /  10.1 km/h 20.1 mph /  32.3 km/h 76 % 0.0 in /  0 mm
15:11 8.8 °F /  -12.9 °C 4.6 °F /  -15.2 °C 1000.9 in /  33890.5 hPa WSW 6.6 mph /  10.6 km/h 12.6 mph /  20.3 km/h 75 % 0.0 in /  0 mm
15:30 8.6 °F /  -13 °C 4.1 °F /  -15.5 °C 1000.9 in /  33890.5 hPa WSW 7.1 mph /  11.4 km/h 14.0 mph /  22.5 km/h 73 % 0.0 in /  0 mm
15:43 8.5 °F /  -13.1 °C 3.7 °F /  -15.7 °C 1000.9 in /  33890.5 hPa West 5.5 mph /  8.9 km/h 13.7 mph /  22 km/h 72 % 0.0 in /  0 mm
15:50 8.4 °F /  -13.1 °C 3.7 °F /  -15.7 °C 1000.9 in /  33890.5 hPa West 6.6 mph /  10.6 km/h 13.7 mph /  22 km/h 72 % 0.0 in /  0 mm
16:04 8.2 °F /  -13.2 °C 3.3 °F /  -15.9 °C 1000.9 in /  33890.5 hPa West 7.2 mph /  11.6 km/h 16.9 mph /  27.2 km/h 71 % 0.0 in /  0 mm
16:11 8.2 °F /  -13.2 °C 3.1 °F /  -16.1 °C 1000.9 in /  33890.5 hPa West 8.5 mph /  13.7 km/h 16.9 mph /  27.2 km/h 70 % 0.0 in /  0 mm
16:26 8.0 °F /  -13.3 °C 2.8 °F /  -16.2 °C 1000.9 in /  33890.5 hPa West 9.8 mph /  15.8 km/h 24.5 mph /  39.4 km/h 70 % 0.0 in /  0 mm
16:47 7.8 °F /  -13.4 °C 2.9 °F /  -16.2 °C 1000.9 in /  33890.5 hPa WSW 7.4 mph /  11.9 km/h 18.3 mph /  29.5 km/h 71 % 0.0 in /  0 mm
17:03 7.7 °F /  -13.5 °C 2.9 °F /  -16.2 °C 999.9 in /  33856.6 hPa SW 5.6 mph /  9 km/h 10.5 mph /  16.9 km/h 72 % 0.0 in /  0 mm
17:20 7.5 °F /  -13.6 °C 2.8 °F /  -16.2 °C 1000.9 in /  33890.5 hPa SSW 3.7 mph /  6 km/h 12.6 mph /  20.3 km/h 72 % 0.0 in /  0 mm
17:27 7.5 °F /  -13.6 °C 2.9 °F /  -16.2 °C 999.9 in /  33856.6 hPa SSW 3.5 mph /  5.6 km/h 12.6 mph /  20.3 km/h 73 % 0.0 in /  0 mm
17:38 7.5 °F /  -13.6 °C 2.9 °F /  -16.2 °C 999.9 in /  33856.6 hPa SSW 6.4 mph /  10.3 km/h 11.6 mph /  18.7 km/h 73 % 0.0 in /  0 mm
17:55 7.5 °F /  -13.6 °C 3.2 °F /  -16 °C 1000.9 in /  33890.5 hPa South 6.8 mph /  10.9 km/h 12.6 mph /  20.3 km/h 74 % 0.0 in /  0 mm
18:05 7.5 °F /  -13.6 °C 3.2 °F /  -16 °C 1000.9 in /  33890.5 hPa South 5.5 mph /  8.9 km/h 10.5 mph /  16.9 km/h 74 % 0.0 in /  0 mm
18:16 7.5 °F /  -13.6 °C 3.2 °F /  -16 °C 999.9 in /  33856.6 hPa SSW 3.4 mph /  5.5 km/h 10.5 mph /  16.9 km/h 74 % 0.0 in /  0 mm
18:23 7.5 °F /  -13.6 °C 3.2 °F /  -16 °C 999.9 in /  33856.6 hPa SSW 6.3 mph /  10.1 km/h 10.5 mph /  16.9 km/h 74 % 0.0 in /  0 mm
18:28 7.5 °F /  -13.6 °C 3.2 °F /  -16 °C 999.9 in /  33856.6 hPa SSW 4.7 mph /  7.6 km/h 10.1 mph /  16.3 km/h 74 % 0.0 in /  0 mm
18:36 7.5 °F /  -13.6 °C 3.2 °F /  -16 °C 999.9 in /  33856.6 hPa SW 5.5 mph /  8.9 km/h 15.8 mph /  25.4 km/h 74 % 0.0 in /  0 mm
18:41 7.7 °F /  -13.5 °C 3.6 °F /  -15.8 °C 999.9 in /  33856.6 hPa SW 6.8 mph /  10.9 km/h 15.8 mph /  25.4 km/h 75 % 0.0 in /  0 mm
19:00 7.9 °F /  -13.4 °C 3.6 °F /  -15.8 °C 999.9 in /  33856.6 hPa SW 5.5 mph /  8.9 km/h 12.2 mph /  19.6 km/h 74 % 0.0 in /  0 mm
19:09 7.9 °F /  -13.4 °C 3.6 °F /  -15.8 °C 999.9 in /  33856.6 hPa SW 6.9 mph /  11.1 km/h 14.0 mph /  22.5 km/h 74 % 0.0 in /  0 mm
19:32 7.9 °F /  -13.4 °C 3.6 °F /  -15.8 °C 999.9 in /  33856.6 hPa SW 3.9 mph /  6.3 km/h 10.1 mph /  16.3 km/h 74 % 0.0 in /  0 mm
20:02 8.2 °F /  -13.2 °C 3.4 °F /  -15.9 °C 999.9 in /  33856.6 hPa WSW 6.3 mph /  10.1 km/h 21.9 mph /  35.2 km/h 72 % 0.0 in /  0 mm
20:07 8.2 °F /  -13.2 °C 3.4 °F /  -15.9 °C 999.9 in /  33856.6 hPa WSW 5.3 mph /  8.5 km/h 21.9 mph /  35.2 km/h 72 % 0.0 in /  0 mm
20:15 8.3 °F /  -13.2 °C 3.6 °F /  -15.8 °C 999.9 in /  33856.6 hPa West 5.6 mph /  9 km/h 11.9 mph /  19.2 km/h 72 % 0.0 in /  0 mm
20:49 8.3 °F /  -13.2 °C 3.2 °F /  -16 °C 999.9 in /  33856.6 hPa West 3.2 mph /  5.1 km/h 16.3 mph /  26.2 km/h 70 % 0.0 in /  0 mm
21:01 8.3 °F /  -13.2 °C 3.2 °F /  -16 °C 1000.9 in /  33890.5 hPa WSW 6.6 mph /  10.6 km/h 13.7 mph /  22 km/h 70 % 0.0 in /  0 mm
21:12 8.2 °F /  -13.2 °C 2.8 °F /  -16.2 °C 1000.9 in /  33890.5 hPa WSW 4.0 mph /  6.4 km/h 8.7 mph /  14 km/h 69 % 0.0 in /  0 mm
21:31 8.1 °F /  -13.3 °C 2.8 °F /  -16.2 °C 1000.9 in /  33890.5 hPa NW 5.0 mph /  8 km/h 14.8 mph /  23.8 km/h 69 % 0.0 in /  0 mm
21:36 8.1 °F /  -13.3 °C 2.8 °F /  -16.2 °C 1000.9 in /  33890.5 hPa South 3.7 mph /  6 km/h 12.2 mph /  19.6 km/h 69 % 0.0 in /  0 mm
21:57 8.2 °F /  -13.2 °C 2.8 °F /  -16.2 °C 1000.9 in /  33890.5 hPa WSW 5.1 mph /  8.2 km/h 14.0 mph /  22.5 km/h 69 % 0.0 in /  0 mm
22:17 8.2 °F /  -13.2 °C 2.8 °F /  -16.2 °C 1000.9 in /  33890.5 hPa WNW 3.4 mph /  5.5 km/h 10.1 mph /  16.3 km/h 69 % 0.0 in /  0 mm
22:25 8.3 °F /  -13.2 °C 2.9 °F /  -16.2 °C 1000.9 in /  33890.5 hPa WNW 5.3 mph /  8.5 km/h 16.3 mph /  26.2 km/h 69 % 0.0 in /  0 mm
22:31 8.3 °F /  -13.2 °C 2.9 °F /  -16.2 °C 1000.9 in /  33890.5 hPa WSW 5.3 mph /  8.5 km/h 13.0 mph /  20.9 km/h 69 % 0.0 in /  0 mm
22:42 8.3 °F /  -13.2 °C 2.7 °F /  -16.3 °C 1000.9 in /  33890.5 hPa SW 7.2 mph /  11.6 km/h 14.0 mph /  22.5 km/h 68 % 0.0 in /  0 mm
22:53 8.3 °F /  -13.2 °C 2.7 °F /  -16.3 °C 1000.9 in /  33890.5 hPa SW 7.2 mph /  11.6 km/h 19.1 mph /  30.7 km/h 68 % 0.0 in /  0 mm
23:23 8.3 °F /  -13.2 °C 2.5 °F /  -16.4 °C 1000.9 in /  33890.5 hPa SW 5.5 mph /  8.9 km/h 10.1 mph /  16.3 km/h 67 % 0.0 in /  0 mm
23:31 8.3 °F /  -13.2 °C 2.5 °F /  -16.4 °C 999.9 in /  33856.6 hPa WSW 7.2 mph /  11.6 km/h 20.6 mph /  33.2 km/h 67 % 0.0 in /  0 mm
23:37 8.2 °F /  -13.2 °C 2.4 °F /  -16.4 °C 999.9 in /  33856.6 hPa SW 5.3 mph /  8.5 km/h 10.5 mph /  16.9 km/h 67 % 0.0 in /  0 mm
23:48 8.2 °F /  -13.2 °C 2.4 °F /  -16.4 °C 999.9 in /  33856.6 hPa SW 5.6 mph /  9 km/h 12.6 mph /  20.3 km/h 67 % 0.0 in /  0 mm
23:56 8.1 °F /  -13.3 °C 2.3 °F /  -16.5 °C 999.9 in /  33856.6 hPa SW 5.5 mph /  8.9 km/h 14.0 mph /  22.5 km/h 67 % 0.0 in /  0 mm
Vremenska postaja Senovo
Podatki zbrani iz Weather Underground - 2 mb

Script developed by  Jim McMurry - jmcmurry@mwt.net Adapted for the template by  Wim van der Kuil - Leuven-Template.eu

Vremenski podatki so objavljeni na:

European Weather Network

WeatherCloud

Weather Underground

AWEKAS

HAMweather, WeatherForYou, PWS Weather

MapView

Geostik

Slovenia weather network

Oprema, ki se uporablja:

Vremenski program
Cumulus

Vremenski server
Asus

Cumulus

Asus